aviador You're here:

KLPR Decoded Metar

LORAIN/ELYRIA in OH, USA
Report Time2018-02-25 14:53:00
UTC Time2018-02-25 15:33:32
Flight Rules vfr VFR
Wind270° at 22 Gusting to 29 kt
W.Decomp.*RWY 25: 20.1 kt HW 8.9 kt RCW
W.Rank270° ranks 3
Current wind is above 270° avg. (9.6)
Visibility9999 m
Phenomena:N/A
Clouds:N/A
Expected CloudBase > 2,800 ft AGL from Temp-Dew spread
CeilingNone
Temp07°C (ISA -6)
Dew Point00°C (61% RH)
AAT-2.9°C
QNH1010 hPa
Density Alt207 ft
Elevation791 ft
Report Wrong Elevation
Raw Report
KLPR 251453Z AUTO 27022G29KT 10SM CLR 07/00 A2984 RMK AO2 PK WND
27033/1418 SLP110 T00670000 51059=

Extra information for KLPR:More info

Metar Taf Metar & Taf Last 4 Metars F.Rules Stats Wind Profile Meteogram Temp Stats Airport Information Weather charts Add Link Nearby VenuesMetar ALERT Operation Metar Decoded Social comments

AIRNAV info for KLPR